Terminal Aerodrome Forecast
Issued by NWS

Home | Current Version | Previous Version | Text Only | Print | Product List | Glossary On
Versions: 1 2 3 4 5 6 7 8 9 10 11 12 13 14 15
000
FTUS45 KGGW 160520
TAFSDY
TAF
KSDY 160520Z 1606/1706 21007KT P6SM FEW250
     FM161200 22007KT P6SM SKC WS020/28035KT
     FM161600 25011KT P6SM FEW150
     FM161900 27014G23KT P6SM SKC
     FM162300 27010KT P6SM SKC=

USA.gov is the U.S. government's official web portal to all federal, state and local government web resources and services.